Time;durP1;ratioP1;P1;durP2;ratioP2;P2;SDS_P1;SDS_P2;PMS_P1;PMS_P2;Temp;Humidity;BMP_temperature;BMP_pressure;BME280_temperature;BME280_humidity;BME280_pressure;Samples;Min_cycle;Max_cycle;Signal;HPM_P1;HPM_P2
2022/10/05 00:01:43;;;;;;;14.23;8.40;;;14.10;99.90;;;;;;5006111;28;20824;-66
2022/10/05 00:04:21;;;;;;;9.53;7.70;;;14.10;99.90;;;;;;5012400;28;20499;-66
2022/10/05 00:06:55;;;;;;;10.70;7.80;;;14.10;99.90;;;;;;5007695;28;20471;-65
2022/10/05 00:09:21;;;;;;;10.53;8.70;;;14.10;99.90;;;;;;5007944;28;20459;-66
2022/10/05 00:11:48;;;;;;;11.33;8.03;;;14.10;99.90;;;;;;5002693;28;20456;-65
2022/10/05 00:14:18;;;;;;;14.93;7.87;;;14.10;99.90;;;;;;5002665;28;20186;-66
2022/10/05 00:16:43;;;;;;;9.97;8.20;;;14.10;99.90;;;;;;5001607;28;20446;-66
2022/10/05 00:19:29;;;;;;;9.87;8.10;;;14.10;99.90;;;;;;5008925;28;20451;-65
2022/10/05 00:22:16;;;;;;;11.30;8.00;;;14.00;99.90;;;;;;4996368;28;20183;-65
2022/10/05 00:24:47;;;;;;;11.57;7.83;;;14.00;99.90;;;;;;5005354;28;20551;-65
2022/10/05 00:27:18;;;;;;;9.43;7.27;;;14.00;99.90;;;;;;4996582;28;20454;-65
2022/10/05 00:29:44;;;;;;;12.47;7.67;;;14.00;99.90;;;;;;5001116;28;20444;-65
2022/10/05 00:32:10;;;;;;;13.50;8.40;;;13.90;99.90;;;;;;5006173;28;20810;-65
2022/10/05 00:34:36;;;;;;;10.23;8.03;;;14.00;99.90;;;;;;4996132;28;20447;-65
2022/10/05 00:37:03;;;;;;;11.47;8.43;;;13.90;99.90;;;;;;4999187;28;20285;-65
2022/10/05 00:39:29;;;;;;;11.97;8.10;;;13.90;99.90;;;;;;4998958;28;20451;-65
2022/10/05 00:42:03;;;;;;;29.03;8.20;;;13.90;99.90;;;;;;4999308;28;20421;-65
2022/10/05 00:44:50;;;;;;;10.00;7.67;;;13.80;99.90;;;;;;4996740;28;20189;-65
2022/10/05 00:47:46;;;;;;;9.50;7.83;;;13.80;99.90;;;;;;4999950;28;20615;-65
2022/10/05 00:50:25;;;;;;;12.27;8.23;;;13.80;99.90;;;;;;4999643;28;20471;-65
2022/10/05 00:53:31;;;;;;;8.00;7.20;;;13.80;99.90;;;;;;4995667;28;20850;-65
2022/10/05 00:56:29;;;;;;;10.90;7.43;;;13.70;99.90;;;;;;4991095;28;20922;-65
2022/10/05 00:59:23;;;;;;;9.10;7.30;;;13.70;99.90;;;;;;4990333;28;20572;-65
2022/10/05 01:02:19;;;;;;;10.50;7.90;;;13.70;99.90;;;;;;4972878;28;20463;-65
2022/10/05 01:04:58;;;;;;;9.60;7.63;;;13.70;99.90;;;;;;4994782;28;20502;-65
2022/10/05 01:07:42;;;;;;;12.97;8.03;;;13.70;99.90;;;;;;4999040;28;20421;-65
2022/10/05 01:10:16;;;;;;;9.97;7.70;;;13.60;99.90;;;;;;4993628;28;20459;-65
2022/10/05 01:13:15;;;;;;;11.07;7.67;;;13.60;99.90;;;;;;4999225;28;20431;-65
2022/10/05 01:16:15;;;;;;;9.07;7.23;;;13.70;99.90;;;;;;4996710;28;20463;-65
2022/10/05 01:18:53;;;;;;;9.93;7.70;;;13.60;99.90;;;;;;4992168;28;20487;-65
2022/10/05 01:21:27;;;;;;;11.83;8.13;;;13.60;99.90;;;;;;4995454;28;20511;-65
2022/10/05 01:24:19;;;;;;;13.83;9.07;;;13.60;99.90;;;;;;4997570;28;20859;-65
2022/10/05 01:27:26;;;;;;;10.00;8.10;;;13.60;99.90;;;;;;4996667;28;20515;-65
2022/10/05 01:30:14;;;;;;;10.77;8.53;;;13.60;99.90;;;;;;4964097;28;20985;-65
2022/10/05 01:32:46;;;;;;;9.47;7.73;;;13.50;99.90;;;;;;4997054;28;20460;-65
2022/10/05 01:35:20;;;;;;;10.13;7.97;;;13.50;99.90;;;;;;4998644;28;20460;-65
2022/10/05 01:38:10;;;;;;;9.13;7.53;;;13.50;99.90;;;;;;4992573;28;20471;-65
2022/10/05 01:40:56;;;;;;;7.50;6.80;;;13.40;99.90;;;;;;4997013;28;20460;-65
2022/10/05 01:43:34;;;;;;;10.60;7.20;;;13.40;99.90;;;;;;4992833;28;20843;-65
2022/10/05 01:46:20;;;;;;;10.23;7.67;;;13.40;99.90;;;;;;4995060;28;20911;-65
2022/10/05 01:49:05;;;;;;;8.00;6.80;;;13.40;99.90;;;;;;5017948;28;20444;-65
2022/10/05 01:51:42;;;;;;;9.67;6.93;;;13.40;99.90;;;;;;4994780;28;20446;-66
2022/10/05 01:54:21;;;;;;;7.30;6.43;;;13.30;99.90;;;;;;4998424;28;20439;-66
2022/10/05 01:57:20;;;;;;;8.83;6.50;;;13.30;99.90;;;;;;4998918;28;20480;-65
2022/10/05 02:00:06;;;;;;;8.17;6.47;;;13.30;99.90;;;;;;4990388;28;20480;-65
2022/10/05 02:02:36;;;;;;;7.20;6.13;;;13.30;99.90;;;;;;4996105;28;21319;-65
2022/10/05 02:05:08;;;;;;;7.60;6.40;;;13.30;99.90;;;;;;4994956;28;20938;-65
2022/10/05 02:07:56;;;;;;;10.53;6.47;;;13.30;99.90;;;;;;4994940;28;20417;-66
2022/10/05 02:10:27;;;;;;;11.23;6.60;;;13.30;99.90;;;;;;4999647;28;20904;-66
2022/10/05 02:13:12;;;;;;;7.80;6.30;;;13.30;99.90;;;;;;5016606;28;20929;-66
2022/10/05 02:15:43;;;;;;;8.10;6.47;;;13.30;99.90;;;;;;5000513;28;20448;-66
2022/10/05 02:18:22;;;;;;;9.97;6.10;;;13.30;99.90;;;;;;4997837;28;20892;-66
2022/10/05 02:20:49;;;;;;;7.67;6.40;;;13.30;99.90;;;;;;4996834;28;20440;-66
2022/10/05 02:23:22;;;;;;;8.60;7.20;;;13.20;99.90;;;;;;5002243;28;20459;-66
2022/10/05 02:25:51;;;;;;;9.63;6.00;;;13.20;99.90;;;;;;5001537;28;20412;-67
2022/10/05 02:28:41;;;;;;;12.00;7.83;;;13.20;99.90;;;;;;4999905;28;20481;-66
2022/10/05 02:31:14;;;;;;;8.97;7.50;;;13.20;99.90;;;;;;4999789;28;20455;-66
2022/10/05 02:33:40;;;;;;;10.00;6.97;;;13.10;99.90;;;;;;4999802;28;20455;-67
2022/10/05 02:36:18;;;;;;;9.80;7.70;;;13.10;99.90;;;;;;4998382;28;20413;-67
2022/10/05 02:38:57;;;;;;;9.30;7.30;;;13.10;99.90;;;;;;4996832;28;20213;-66
2022/10/05 02:41:48;;;;;;;17.23;7.77;;;13.10;99.90;;;;;;5001302;28;20459;-67
2022/10/05 02:44:29;;;;;;;9.47;7.23;;;13.10;99.90;;;;;;4999675;28;20934;-66
2022/10/05 02:47:32;;;;;;;9.67;7.37;;;13.10;99.90;;;;;;4999318;28;20536;-66
2022/10/05 02:50:10;;;;;;;8.20;6.87;;;13.10;99.90;;;;;;4998190;28;20506;-66
2022/10/05 02:53:06;;;;;;;11.77;7.20;;;13.10;99.90;;;;;;5002810;28;20420;-66
2022/10/05 02:56:18;;;;;;;9.60;7.13;;;13.00;99.90;;;;;;4999901;28;20434;-65
2022/10/05 02:58:59;;;;;;;9.30;7.93;;;13.00;99.90;;;;;;4973580;28;20981;-64
2022/10/05 03:01:33;;;;;;;12.43;8.97;;;13.00;99.90;;;;;;4978716;28;20501;-64
2022/10/05 03:04:10;;;;;;;10.73;9.60;;;12.90;99.90;;;;;;4992260;28;21024;-65
2022/10/05 03:06:46;;;;;;;14.77;9.40;;;12.90;99.90;;;;;;4999526;28;20887;-65
2022/10/05 03:09:15;;;;;;;10.00;9.00;;;12.90;99.90;;;;;;5001976;28;20412;-66
2022/10/05 03:12:03;;;;;;;17.73;9.60;;;12.90;99.90;;;;;;5001583;28;20412;-66
2022/10/05 03:14:45;;;;;;;11.70;9.00;;;12.90;99.90;;;;;;4997731;28;20447;-65
2022/10/05 03:17:24;;;;;;;10.47;9.00;;;12.90;99.90;;;;;;5000889;28;20470;-66
2022/10/05 03:20:14;;;;;;;15.30;10.13;;;12.90;99.90;;;;;;5001635;28;20452;-65
2022/10/05 03:22:57;;;;;;;18.40;9.90;;;12.90;99.90;;;;;;4996972;28;20428;-66
2022/10/05 03:25:37;;;;;;;12.57;10.13;;;12.90;99.90;;;;;;4998346;28;20502;-65
2022/10/05 03:28:14;;;;;;;13.97;11.30;;;13.00;99.90;;;;;;4995038;28;20425;-65
2022/10/05 03:31:10;;;;;;;14.87;10.90;;;13.00;99.90;;;;;;5000549;28;20457;-65
2022/10/05 03:34:10;;;;;;;13.43;10.67;;;13.00;99.90;;;;;;4999439;28;20901;-65
2022/10/05 03:36:52;;;;;;;16.27;10.60;;;13.00;99.90;;;;;;4999903;28;20543;-65
2022/10/05 03:39:33;;;;;;;17.87;10.57;;;13.00;99.90;;;;;;5003282;28;20432;-65
2022/10/05 03:42:43;;;;;;;18.70;10.80;;;13.00;99.90;;;;;;4997780;28;20409;-65
2022/10/05 03:45:21;;;;;;;12.37;9.60;;;13.00;99.90;;;;;;4980164;28;20939;-66
2022/10/05 03:48:10;;;;;;;10.73;8.90;;;13.00;99.90;;;;;;5003533;28;20421;-65
2022/10/05 03:51:00;;;;;;;12.07;8.97;;;13.00;99.90;;;;;;4996793;28;21124;-65
2022/10/05 03:53:39;;;;;;;10.60;8.23;;;13.00;99.90;;;;;;5001182;28;20587;-65
2022/10/05 03:56:08;;;;;;;14.70;8.40;;;13.00;99.90;;;;;;5002879;28;20454;-65
2022/10/05 03:58:38;;;;;;;14.53;7.73;;;13.00;99.90;;;;;;4999326;28;20550;-65
2022/10/05 04:01:09;;;;;;;10.80;8.17;;;13.00;99.90;;;;;;4995792;28;20524;-65
2022/10/05 04:03:54;;;;;;;9.50;8.60;;;13.00;99.90;;;;;;4998238;28;20423;-66
2022/10/05 04:06:29;;;;;;;14.20;9.57;;;13.00;99.90;;;;;;4994505;28;20442;-65
2022/10/05 04:09:15;;;;;;;12.33;9.33;;;13.00;99.90;;;;;;4997922;28;20440;-65
2022/10/05 04:11:46;;;;;;;13.80;9.07;;;13.00;99.90;;;;;;4998254;28;20499;-65
2022/10/05 04:14:25;;;;;;;12.70;8.90;;;13.00;99.90;;;;;;5000212;28;20420;-65
2022/10/05 04:16:58;;;;;;;11.00;9.60;;;13.00;99.90;;;;;;5003873;28;20905;-66
2022/10/05 04:19:31;;;;;;;12.00;10.03;;;12.90;99.90;;;;;;5000850;28;20440;-66
2022/10/05 04:22:26;;;;;;;14.07;9.73;;;12.80;99.90;;;;;;5002106;28;20523;-66
2022/10/05 04:25:05;;;;;;;10.13;8.27;;;12.80;99.90;;;;;;4979079;28;20493;-66
2022/10/05 04:27:38;;;;;;;12.40;9.13;;;12.90;99.90;;;;;;4997120;28;21492;-66
2022/10/05 04:30:16;;;;;;;20.23;9.93;;;12.90;99.90;;;;;;4996185;28;20566;-66
2022/10/05 04:32:56;;;;;;;12.63;9.33;;;12.90;99.90;;;;;;4995314;28;20992;-66
2022/10/05 04:35:47;;;;;;;13.77;9.40;;;12.80;99.90;;;;;;4995859;28;20457;-65
2022/10/05 04:38:40;;;;;;;13.13;9.77;;;12.80;99.90;;;;;;4997067;28;20997;-66
2022/10/05 04:41:29;;;;;;;10.67;9.53;;;12.80;99.90;;;;;;4997621;28;20819;-66
2022/10/05 04:44:10;;;;;;;14.83;10.33;;;12.90;99.90;;;;;;4997347;28;20427;-66
2022/10/05 04:46:59;;;;;;;16.40;10.80;;;12.80;99.90;;;;;;4998263;28;20447;-66
2022/10/05 04:49:39;;;;;;;12.47;9.60;;;12.80;99.90;;;;;;4993249;28;20424;-66
2022/10/05 04:52:22;;;;;;;12.37;9.83;;;12.80;99.90;;;;;;4990786;28;20523;-66
2022/10/05 04:55:32;;;;;;;22.53;10.97;;;12.70;99.90;;;;;;4992819;28;20419;-65
2022/10/05 04:58:26;;;;;;;13.80;10.63;;;12.60;99.90;;;;;;4975836;28;20472;-65
2022/10/05 05:01:01;;;;;;;13.63;10.03;;;12.60;99.90;;;;;;4996582;28;20551;-66
2022/10/05 05:03:30;;;;;;;12.30;8.83;;;12.60;99.90;;;;;;5000329;28;20418;-66
2022/10/05 05:06:06;;;;;;;12.20;9.97;;;12.60;99.90;;;;;;5002632;28;20757;-66
2022/10/05 05:08:57;;;;;;;10.10;8.87;;;12.50;99.90;;;;;;4993643;28;20464;-66
2022/10/05 05:11:33;;;;;;;10.23;8.20;;;12.60;99.90;;;;;;4999332;28;20444;-66
2022/10/05 05:14:13;;;;;;;10.13;8.33;;;12.50;99.90;;;;;;4998259;28;20893;-65
2022/10/05 05:16:44;;;;;;;11.50;8.63;;;12.50;99.90;;;;;;4993836;28;20603;-64
2022/10/05 05:19:18;;;;;;;11.23;8.17;;;12.50;99.90;;;;;;4995846;28;20579;-65
2022/10/05 05:22:13;;;;;;;11.97;8.30;;;12.50;99.90;;;;;;4993948;28;20450;-65
2022/10/05 05:24:52;;;;;;;9.90;8.30;;;12.50;99.90;;;;;;4998963;28;20646;-65
2022/10/05 05:28:01;;;;;;;9.77;8.30;;;12.50;99.90;;;;;;4994120;28;20527;-65
2022/10/05 05:30:39;;;;;;;8.87;7.73;;;12.50;99.90;;;;;;4993886;28;20448;-65
2022/10/05 05:33:18;;;;;;;9.80;8.70;;;12.30;99.90;;;;;;4997506;28;20448;-65
2022/10/05 05:36:05;;;;;;;10.90;8.00;;;12.40;99.90;;;;;;4993395;28;20446;-64
2022/10/05 05:38:36;;;;;;;10.83;7.43;;;12.40;99.90;;;;;;4990052;28;20958;-64
2022/10/05 05:41:18;;;;;;;13.30;7.97;;;12.30;99.90;;;;;;4988140;28;20506;-64
2022/10/05 05:44:23;;;;;;;12.80;8.07;;;12.40;99.90;;;;;;4991438;28;20502;-64
2022/10/05 05:47:00;;;;;;;10.87;8.50;;;12.40;99.90;;;;;;4994019;28;21100;-64
2022/10/05 05:50:01;;;;;;;11.67;9.00;;;12.50;99.90;;;;;;4993151;28;20938;-64
2022/10/05 05:52:45;;;;;;;10.50;8.37;;;12.40;99.90;;;;;;4985986;28;20432;-64
2022/10/05 05:55:23;;;;;;;9.63;7.87;;;12.40;99.90;;;;;;4993317;28;20423;-64
2022/10/05 05:58:08;;;;;;;9.80;8.30;;;12.40;99.90;;;;;;4995386;28;20465;-64
2022/10/05 06:00:41;;;;;;;12.90;8.63;;;12.50;99.90;;;;;;4993597;28;20862;-64
2022/10/05 06:03:17;;;;;;;11.17;8.87;;;12.50;99.90;;;;;;4994042;28;20486;-65
2022/10/05 06:05:55;;;;;;;12.23;8.80;;;12.50;99.90;;;;;;4990464;28;20428;-64
2022/10/05 06:08:46;;;;;;;11.83;7.93;;;12.50;99.90;;;;;;4989995;28;20538;-65
2022/10/05 06:11:20;;;;;;;9.00;8.10;;;12.50;99.90;;;;;;4994660;28;20454;-64
2022/10/05 06:13:47;;;;;;;10.73;8.97;;;12.60;99.90;;;;;;4995866;28;20428;-64
2022/10/05 06:16:21;;;;;;;13.47;8.73;;;12.50;99.90;;;;;;4994927;28;20428;-65
2022/10/05 06:18:58;;;;;;;13.33;8.77;;;12.50;99.90;;;;;;4997894;28;20471;-65
2022/10/05 06:21:33;;;;;;;9.67;8.67;;;12.50;99.90;;;;;;4996583;28;20856;-65
2022/10/05 06:24:16;;;;;;;9.70;8.77;;;12.60;99.90;;;;;;4991532;28;20432;-65
2022/10/05 06:26:59;;;;;;;11.90;9.30;;;12.60;99.90;;;;;;4990083;28;20441;-64
2022/10/05 06:29:54;;;;;;;13.23;8.43;;;12.60;99.90;;;;;;4989905;28;20474;-64
2022/10/05 06:32:32;;;;;;;11.80;8.97;;;12.60;99.90;;;;;;4994391;28;20532;-64
2022/10/05 06:35:16;;;;;;;10.43;9.17;;;12.70;99.90;;;;;;4996743;28;20443;-66
2022/10/05 06:38:05;;;;;;;13.33;9.07;;;12.70;99.90;;;;;;5007244;28;21026;-65
2022/10/05 06:40:59;;;;;;;10.67;8.80;;;12.70;99.90;;;;;;4990315;28;20449;-65
2022/10/05 06:43:47;;;;;;;10.03;8.97;;;12.70;99.90;;;;;;4993327;28;20417;-65
2022/10/05 06:46:41;;;;;;;12.27;9.00;;;12.70;99.90;;;;;;4997142;28;20429;-66
2022/10/05 06:49:29;;;;;;;13.00;9.40;;;12.70;99.90;;;;;;4997537;28;20526;-66
2022/10/05 06:52:11;;;;;;;9.00;7.70;;;12.80;99.90;;;;;;4992726;28;21078;-65
2022/10/05 06:54:47;;;;;;;12.53;8.57;;;12.70;99.90;;;;;;4999116;28;20439;-65
2022/10/05 06:57:35;;;;;;;14.30;10.17;;;12.80;99.90;;;;;;4998343;28;20466;-65
2022/10/05 07:00:15;;;;;;;13.90;9.47;;;12.80;99.90;;;;;;5000118;28;21056;-65
2022/10/05 07:03:03;;;;;;;13.90;9.67;;;12.80;99.90;;;;;;4999020;28;20969;-65
2022/10/05 07:05:48;;;;;;;11.23;8.93;;;12.90;99.90;;;;;;5014513;28;20443;-65
2022/10/05 07:08:26;;;;;;;13.90;10.83;;;12.90;99.90;;;;;;4995958;28;20432;-65
2022/10/05 07:11:04;;;;;;;11.47;9.30;;;12.90;99.90;;;;;;4996469;28;20926;-65
2022/10/05 07:14:01;;;;;;;11.93;9.90;;;13.00;99.90;;;;;;4996990;28;20463;-65
2022/10/05 07:16:44;;;;;;;17.37;9.60;;;13.00;99.90;;;;;;4978019;28;20429;-65
2022/10/05 07:19:15;;;;;;;25.83;18.43;;;13.00;99.90;;;;;;4992331;28;20483;-65
2022/10/05 07:21:59;;;;;;;12.93;10.27;;;13.00;99.90;;;;;;5000548;28;22037;-65
2022/10/05 07:24:47;;;;;;;13.63;10.03;;;13.10;99.90;;;;;;4995648;28;20484;-65
2022/10/05 07:27:23;;;;;;;10.33;8.67;;;13.10;99.90;;;;;;4993608;28;20498;-65
2022/10/05 07:30:00;;;;;;;11.53;9.53;;;13.10;99.90;;;;;;4999735;28;20451;-65
2022/10/05 07:32:40;;;;;;;14.93;9.97;;;13.20;99.90;;;;;;4998126;28;20925;-65
2022/10/05 07:37:52;;;;;;;10.63;9.10;;;13.20;99.90;;;;;;4999244;28;20429;-65
2022/10/05 07:38:09;;;;;;;15.10;11.70;;;13.20;99.90;;;;;;4995750;28;20468;-66
2022/10/05 07:41:18;;;;;;;13.37;10.63;;;13.20;99.90;;;;;;4998262;28;20448;-65
2022/10/05 07:43:47;;;;;;;12.53;10.10;;;13.30;99.90;;;;;;4957576;28;20436;-65
2022/10/05 07:46:51;;;;;;;12.63;10.30;;;13.40;99.90;;;;;;4958351;28;20497;-65
2022/10/05 07:49:33;;;;;;;11.03;9.77;;;13.40;99.90;;;;;;4948135;28;20445;-65
2022/10/05 07:52:09;;;;;;;14.43;9.50;;;13.50;99.90;;;;;;4962667;28;20456;-65
2022/10/05 07:55:02;;;;;;;11.63;9.50;;;13.50;99.90;;;;;;4985842;28;20444;-65
2022/10/05 07:57:43;;;;;;;11.20;9.10;;;13.50;99.90;;;;;;4998241;28;20455;-65
2022/10/05 08:00:16;;;;;;;11.63;9.77;;;13.60;99.90;;;;;;4985002;28;20546;-65
2022/10/05 08:03:27;;;;;;;13.27;9.00;;;13.70;99.90;;;;;;4994868;28;20428;-65
2022/10/05 08:05:53;;;;;;;13.83;10.33;;;13.80;99.90;;;;;;4996019;28;20440;-65
2022/10/05 08:08:50;;;;;;;13.00;10.03;;;13.80;99.90;;;;;;4991869;28;20420;-65
2022/10/05 08:12:07;;;;;;;12.27;9.97;;;13.90;99.90;;;;;;4997503;28;20436;-65
2022/10/05 08:14:32;;;;;;;11.20;9.40;;;14.00;99.90;;;;;;4979512;28;21364;-65
2022/10/05 08:17:02;;;;;;;10.73;9.73;;;14.00;99.90;;;;;;5002121;28;20417;-65
2022/10/05 08:19:39;;;;;;;11.50;10.10;;;14.20;99.90;;;;;;4997842;28;20200;-65
2022/10/05 08:22:11;;;;;;;12.97;11.00;;;14.20;99.90;;;;;;4996781;28;20432;-65
2022/10/05 08:24:42;;;;;;;12.67;9.63;;;14.30;99.90;;;;;;5000258;28;20483;-65
2022/10/05 08:27:59;;;;;;;12.40;9.50;;;14.30;99.90;;;;;;5002667;28;20460;-65
2022/10/05 08:30:25;;;;;;;11.53;9.40;;;14.30;99.90;;;;;;4965531;28;20466;-65
2022/10/05 08:33:15;;;;;;;13.43;10.27;;;14.40;99.90;;;;;;4993720;28;20435;-65
2022/10/05 08:35:45;;;;;;;11.20;10.00;;;14.40;99.90;;;;;;4999205;28;20173;-64
2022/10/05 08:38:16;;;;;;;11.00;9.70;;;14.50;99.90;;;;;;4994662;28;20467;-65
2022/10/05 08:41:15;;;;;;;11.10;9.10;;;14.40;99.90;;;;;;4996849;28;20435;-64
2022/10/05 08:44:02;;;;;;;10.00;8.73;;;14.60;99.90;;;;;;4997461;28;20431;-65
2022/10/05 08:47:04;;;;;;;9.17;8.17;;;14.70;99.90;;;;;;4994160;28;20440;-65
2022/10/05 08:50:06;;;;;;;11.30;8.17;;;14.70;99.90;;;;;;4994206;28;20447;-66
2022/10/05 08:52:56;;;;;;;9.53;8.40;;;14.80;99.90;;;;;;4995004;28;20458;-66
2022/10/05 08:55:27;;;;;;;10.17;8.30;;;14.80;99.90;;;;;;5000872;28;20424;-66
2022/10/05 08:58:06;;;;;;;9.93;8.93;;;14.90;99.90;;;;;;4998498;28;20466;-66
2022/10/05 09:00:56;;;;;;;11.60;9.40;;;15.00;99.90;;;;;;4999570;28;20468;-65
2022/10/05 09:03:41;;;;;;;9.73;8.77;;;15.10;99.90;;;;;;4992363;28;20949;-67
2022/10/05 09:06:36;;;;;;;9.30;8.37;;;15.20;99.90;;;;;;4992644;28;20550;-67
2022/10/05 09:09:08;;;;;;;10.87;9.47;;;15.20;99.90;;;;;;4974088;28;20444;-65
2022/10/05 09:11:44;;;;;;;13.10;10.63;;;15.40;99.90;;;;;;5002508;28;20450;-65
2022/10/05 09:14:47;;;;;;;12.67;9.60;;;15.40;99.90;;;;;;5003596;28;20443;-65
2022/10/05 09:17:36;;;;;;;11.50;9.23;;;15.50;99.90;;;;;;4992610;28;20475;-64
2022/10/05 09:20:21;;;;;;;11.57;10.47;;;15.50;99.90;;;;;;4998741;28;20452;-66
2022/10/05 09:23:12;;;;;;;11.13;9.93;;;15.70;99.90;;;;;;4987208;28;20441;-66
2022/10/05 09:25:45;;;;;;;10.93;9.37;;;15.70;99.90;;;;;;4993192;28;20527;-67
2022/10/05 09:28:31;;;;;;;10.57;8.60;;;15.80;99.90;;;;;;4994206;28;20424;-66
2022/10/05 09:31:07;;;;;;;10.10;9.10;;;15.90;99.90;;;;;;4989541;28;20564;-66
2022/10/05 09:33:56;;;;;;;9.90;8.90;;;15.90;99.90;;;;;;4993517;28;20817;-67
2022/10/05 09:36:46;;;;;;;11.17;10.07;;;15.90;99.90;;;;;;5000836;28;20551;-66
2022/10/05 09:39:50;;;;;;;9.00;7.80;;;16.00;99.90;;;;;;4994835;28;20471;-66
2022/10/05 09:42:35;;;;;;;8.80;7.50;;;16.20;99.90;;;;;;4994876;28;20526;-66
2022/10/05 09:45:24;;;;;;;8.37;7.37;;;16.20;99.90;;;;;;4993700;28;20519;-66
2022/10/05 09:48:40;;;;;;;10.57;7.60;;;16.30;99.90;;;;;;4996703;28;20524;-67
2022/10/05 09:51:22;;;;;;;8.73;6.87;;;16.30;99.90;;;;;;4961727;28;20444;-66
2022/10/05 09:54:20;;;;;;;7.10;6.40;;;16.40;99.90;;;;;;4991540;28;20430;-66
2022/10/05 09:57:18;;;;;;;8.27;6.20;;;16.40;99.90;;;;;;4998207;28;20442;-66
2022/10/05 10:00:06;;;;;;;7.80;6.13;;;16.50;99.90;;;;;;4998056;28;20626;-66
2022/10/05 10:02:51;;;;;;;13.10;6.30;;;16.60;99.90;;;;;;4996583;28;20773;-66
2022/10/05 10:05:23;;;;;;;6.97;6.20;;;16.70;99.90;;;;;;4997246;28;20438;-66
2022/10/05 10:08:21;;;;;;;6.77;6.07;;;16.80;99.90;;;;;;4990091;28;20440;-66
2022/10/05 10:11:12;;;;;;;6.90;6.30;;;16.90;99.90;;;;;;4989556;28;20784;-66
2022/10/05 10:13:58;;;;;;;8.20;6.00;;;17.00;99.90;;;;;;4996637;28;20442;-69
2022/10/05 10:16:42;;;;;;;10.73;7.70;;;17.00;99.90;;;;;;4993390;28;20429;-66
2022/10/05 10:19:45;;;;;;;8.80;6.80;;;17.20;99.90;;;;;;4988096;28;20496;-66
2022/10/05 10:22:25;;;;;;;11.40;7.00;;;17.40;99.90;;;;;;4995480;28;20718;-66
2022/10/05 10:25:18;;;;;;;7.47;6.53;;;17.50;99.90;;;;;;4995741;28;20515;-66
2022/10/05 10:28:21;;;;;;;9.77;6.20;;;17.50;99.90;;;;;;4993806;28;20439;-65
2022/10/05 10:31:17;;;;;;;6.70;5.40;;;17.60;99.90;;;;;;4995152;28;20463;-64
2022/10/05 10:34:19;;;;;;;5.40;4.90;;;17.60;99.90;;;;;;4994168;28;20467;-66
2022/10/05 10:37:18;;;;;;;6.63;5.93;;;17.60;99.90;;;;;;4997299;28;20434;-65
2022/10/05 10:40:02;;;;;;;6.97;5.67;;;17.80;99.90;;;;;;5001160;28;20436;-65
2022/10/05 10:43:04;;;;;;;5.80;5.20;;;17.80;99.90;;;;;;5003739;28;20457;-65
2022/10/05 10:45:48;;;;;;;8.70;6.80;;;17.90;99.90;;;;;;5003064;28;20524;-65
2022/10/05 10:48:17;;;;;;;11.93;6.47;;;18.00;99.90;;;;;;5001049;28;20867;-67
2022/10/05 10:51:12;;;;;;;6.83;6.13;;;18.20;99.90;;;;;;4996094;28;20456;-67
2022/10/05 10:54:04;;;;;;;7.67;6.70;;;18.30;99.90;;;;;;5003683;28;20790;-67
2022/10/05 10:56:45;;;;;;;6.20;5.60;;;18.30;99.90;;;;;;4999910;28;20446;-66
2022/10/05 10:59:40;;;;;;;6.83;5.73;;;18.40;99.90;;;;;;4994044;28;20464;-67
2022/10/05 11:02:21;;;;;;;5.80;5.20;;;18.40;99.90;;;;;;4999024;28;20534;-67
2022/10/05 11:05:26;;;;;;;5.87;5.30;;;18.60;99.90;;;;;;5001360;28;20448;-67
2022/10/05 11:08:11;;;;;;;11.40;5.13;;;18.70;99.90;;;;;;4994823;28;20420;-67
2022/10/05 11:11:10;;;;;;;5.47;4.97;;;18.70;99.90;;;;;;5001726;28;20457;-65
2022/10/05 11:14:01;;;;;;;5.33;4.83;;;18.80;99.90;;;;;;5002560;28;20519;-65
2022/10/05 11:17:04;;;;;;;6.80;4.23;;;18.90;99.90;;;;;;4995608;28;20440;-65
2022/10/05 11:19:46;;;;;;;4.57;4.13;;;19.00;99.90;;;;;;4999399;28;20429;-67
2022/10/05 11:22:39;;;;;;;4.70;4.20;;;19.10;99.90;;;;;;4996794;28;21182;-67
2022/10/05 11:25:17;;;;;;;6.60;4.43;;;19.20;99.90;;;;;;4994749;28;20479;-67
2022/10/05 11:27:53;;;;;;;7.43;5.10;;;19.40;99.90;;;;;;5000120;28;20424;-67
2022/10/05 11:30:40;;;;;;;5.07;4.20;;;19.50;99.90;;;;;;4996893;28;20474;-67
2022/10/05 11:33:14;;;;;;;6.70;3.97;;;19.70;99.90;;;;;;4992670;28;20409;-66
2022/10/05 11:36:07;;;;;;;6.73;4.03;;;19.90;99.90;;;;;;5001406;28;20428;-65
2022/10/05 11:38:39;;;;;;;6.03;4.10;;;20.00;99.90;;;;;;5003103;28;21360;-66
2022/10/05 11:41:26;;;;;;;4.47;3.80;;;20.20;99.90;;;;;;4992318;28;20603;-66
2022/10/05 11:44:23;;;;;;;3.87;3.53;;;20.40;99.90;;;;;;4996333;28;20524;-66
2022/10/05 11:47:16;;;;;;;3.90;3.50;;;20.70;99.90;;;;;;5002798;28;20406;-65
2022/10/05 11:50:05;;;;;;;5.63;4.20;;;21.00;99.90;;;;;;4997471;28;20463;-66
2022/10/05 11:52:46;;;;;;;4.20;3.70;;;21.40;99.90;;;;;;5003284;28;20416;-63
2022/10/05 11:55:32;;;;;;;4.63;3.80;;;21.70;99.90;;;;;;5003051;28;20419;-66
2022/10/05 11:58:25;;;;;;;3.50;3.20;;;22.10;99.90;;;;;;4998629;28;20560;-66
2022/10/05 12:00:56;;;;;;;4.63;3.87;;;22.50;99.90;;;;;;5001558;28;20456;-65
2022/10/05 12:03:39;;;;;;;6.57;4.13;;;23.30;99.90;;;;;;4999454;28;20424;-65
2022/10/05 12:06:21;;;;;;;10.27;3.50;;;23.80;99.90;;;;;;5000175;28;20444;-66
2022/10/05 12:09:09;;;;;;;4.87;4.47;;;24.00;99.90;;;;;;4994718;28;20522;-66
2022/10/05 12:11:53;;;;;;;5.20;4.00;;;24.60;99.90;;;;;;4998639;28;20915;-66
2022/10/05 12:14:34;;;;;;;6.13;4.53;;;25.00;99.90;;;;;;5000682;28;20507;-66
2022/10/05 12:17:08;;;;;;;5.70;3.93;;;25.30;99.90;;;;;;5001086;28;20925;-66
2022/10/05 12:19:40;;;;;;;4.23;3.67;;;25.80;99.90;;;;;;4992882;28;20941;-66
2022/10/05 12:22:19;;;;;;;7.23;3.37;;;26.00;99.90;;;;;;5005826;28;20500;-65
2022/10/05 12:25:00;;;;;;;4.10;2.73;;;26.20;99.90;;;;;;4995017;28;20447;-66
2022/10/05 12:27:28;;;;;;;4.63;3.10;;;26.20;99.90;;;;;;4990438;28;21048;-66
2022/10/05 12:30:00;;;;;;;5.40;3.33;;;26.20;99.90;;;;;;4996635;28;20436;-66
2022/10/05 12:32:41;;;;;;;3.27;2.93;;;26.10;99.90;;;;;;5014376;28;21011;-66
2022/10/05 12:35:21;;;;;;;3.50;3.20;;;26.30;99.90;;;;;;4995533;28;20441;-65
2022/10/05 12:37:53;;;;;;;4.03;2.83;;;26.40;99.90;;;;;;4991234;28;20476;-65
2022/10/05 12:40:40;;;;;;;4.07;3.50;;;26.40;99.90;;;;;;4996540;28;20464;-65
2022/10/05 12:43:27;;;;;;;4.20;3.40;;;26.30;99.90;;;;;;4998360;28;20447;-64
2022/10/05 12:46:16;;;;;;;3.60;3.03;;;26.20;99.90;;;;;;4989431;28;20524;-64
2022/10/05 12:49:10;;;;;;;4.10;3.00;;;26.20;99.90;;;;;;4999044;28;20440;-64
2022/10/05 12:52:00;;;;;;;4.93;3.40;;;26.10;99.90;;;;;;4993690;28;20540;-64
2022/10/05 12:54:56;;;;;;;4.17;2.77;;;26.40;99.90;;;;;;4996375;28;20482;-64
2022/10/05 12:57:43;;;;;;;3.37;3.07;;;26.50;99.90;;;;;;5012694;28;20449;-64
2022/10/05 13:00:13;;;;;;;6.93;3.37;;;26.10;99.90;;;;;;4997458;28;20495;-64
2022/10/05 13:02:47;;;;;;;4.23;3.47;;;26.10;99.90;;;;;;4995977;28;20448;-64
2022/10/05 13:05:23;;;;;;;4.73;3.10;;;26.10;99.90;;;;;;4998783;28;20426;-64
2022/10/05 13:08:21;;;;;;;4.53;3.10;;;26.20;99.90;;;;;;4994721;28;20436;-64
2022/10/05 13:11:00;;;;;;;6.83;3.30;;;26.20;99.90;;;;;;5006795;28;20810;-65
2022/10/05 13:13:33;;;;;;;4.90;3.03;;;26.10;99.90;;;;;;4998251;28;20411;-65
2022/10/05 13:16:26;;;;;;;3.43;3.07;;;26.30;99.90;;;;;;4992190;28;20444;-65
2022/10/05 13:19:25;;;;;;;4.03;3.67;;;26.60;99.90;;;;;;4993856;28;20447;-65
2022/10/05 13:22:17;;;;;;;4.30;3.17;;;26.80;99.90;;;;;;4981305;28;20444;-65
2022/10/05 13:24:51;;;;;;;6.90;3.30;;;26.90;99.90;;;;;;4996874;28;20804;-65
2022/10/05 13:27:28;;;;;;;4.40;3.93;;;27.20;99.90;;;;;;4992275;28;20737;-65
2022/10/05 13:30:04;;;;;;;3.20;2.93;;;27.40;99.90;;;;;;4998040;28;20603;-65
2022/10/05 13:32:46;;;;;;;3.40;3.10;;;27.70;99.90;;;;;;4990173;28;21024;-65
2022/10/05 13:35:21;;;;;;;5.63;3.57;;;27.50;99.90;;;;;;4991861;28;20431;-65
2022/10/05 13:38:17;;;;;;;3.33;3.03;;;27.20;99.90;;;;;;4993941;28;21047;-65
2022/10/05 13:41:04;;;;;;;4.30;3.70;;;27.40;99.90;;;;;;4995555;28;20455;-65
2022/10/05 13:44:15;;;;;;;3.60;3.20;;;27.60;99.90;;;;;;4997355;28;20917;-66
2022/10/05 13:47:01;;;;;;;4.03;3.33;;;28.00;99.90;;;;;;4990590;28;20865;-65
2022/10/05 13:49:37;;;;;;;3.23;2.93;;;28.10;99.90;;;;;;4996419;28;20434;-65
2022/10/05 13:52:48;;;;;;;4.03;3.43;;;28.10;99.90;;;;;;4994350;28;20416;-66
2022/10/05 13:55:41;;;;;;;3.57;3.27;;;28.00;99.90;;;;;;4987333;28;20420;-65
2022/10/05 13:58:41;;;;;;;4.17;3.77;;;28.00;99.90;;;;;;4992680;28;20472;-66
2022/10/05 14:01:40;;;;;;;4.70;3.20;;;28.10;99.90;;;;;;4999044;28;20472;-72
2022/10/05 14:04:12;;;;;;;5.67;3.30;;;28.10;99.90;;;;;;4973893;28;21187;-72
2022/10/05 14:06:38;;;;;;;5.73;2.73;;;28.20;99.90;;;;;;5002010;28;20466;-72